createdAt,value
2019-06-07T00:01:23.280Z,29.27
2019-06-07T00:03:53.442Z,27.22
2019-06-07T00:06:25.397Z,26.54
2019-06-07T00:08:55.087Z,26.40
2019-06-07T00:11:25.091Z,24.05
2019-06-07T00:13:56.865Z,23.83
2019-06-07T00:16:26.813Z,26.13
2019-06-07T00:18:57.818Z,26.12
2019-06-07T00:22:12.650Z,28.33
2019-06-07T00:23:59.582Z,29.20
2019-06-07T00:26:29.451Z,31.27
2019-06-07T00:28:59.414Z,29.92
2019-06-07T00:31:29.366Z,24.95
2019-06-07T00:33:59.411Z,27.10
2019-06-07T00:36:29.486Z,24.72
2019-06-07T00:38:59.707Z,25.57
2019-06-07T00:41:31.205Z,28.55
2019-06-07T00:44:01.252Z,26.93
2019-06-07T00:46:31.497Z,24.63
2019-06-07T00:49:01.624Z,28.70
2019-06-07T00:51:49.482Z,27.07
2019-06-07T00:54:04.141Z,27.70
2019-06-07T00:56:34.145Z,27.90
2019-06-07T00:59:11.121Z,28.73
2019-06-07T01:01:35.862Z,29.90
2019-06-07T01:04:05.904Z,29.70
2019-06-07T01:06:35.901Z,29.23
2019-06-07T01:09:07.848Z,30.90
2019-06-07T01:11:37.902Z,29.02
2019-06-07T01:14:08.136Z,28.70
2019-06-07T01:16:56.357Z,28.02
2019-06-07T01:19:09.804Z,27.00
2019-06-07T01:21:39.708Z,30.10
2019-06-07T01:24:12.458Z,28.00
2019-06-07T01:26:41.666Z,30.37
2019-06-07T01:29:11.682Z,28.67
2019-06-07T01:31:41.867Z,35.13
2019-06-07T01:34:11.917Z,30.92
2019-06-07T01:36:41.815Z,31.95
2019-06-07T01:39:11.870Z,30.47
2019-06-07T01:41:41.747Z,32.28
2019-06-07T01:44:11.788Z,28.97
2019-06-07T01:46:41.725Z,30.73
2019-06-07T01:49:11.755Z,31.47
2019-06-07T01:51:41.666Z,33.57
2019-06-07T01:54:49.423Z,31.77
2019-06-07T01:56:44.369Z,32.47
2019-06-07T01:59:14.383Z,32.97
2019-06-07T02:01:44.262Z,29.18
2019-06-07T02:04:14.314Z,32.48
2019-06-07T02:06:44.254Z,30.80
2019-06-07T02:09:14.218Z,31.13
2019-06-07T02:11:44.051Z,32.60
2019-06-07T02:14:14.014Z,33.00
2019-06-07T02:16:44.150Z,30.32
2019-06-07T02:19:14.225Z,31.50
2019-06-07T02:21:44.563Z,32.60
2019-06-07T02:24:14.632Z,33.00
2019-06-07T02:26:44.699Z,33.53
2019-06-07T02:29:14.649Z,34.93
2019-06-07T02:31:44.894Z,36.70
2019-06-07T02:34:14.893Z,33.10
2019-06-07T02:36:45.567Z,33.73
2019-06-07T02:39:16.024Z,32.90
2019-06-07T02:41:46.185Z,30.07
2019-06-07T02:44:16.189Z,33.10
2019-06-07T02:46:49.630Z,33.27
2019-06-07T02:49:18.087Z,32.73
2019-06-07T02:51:48.084Z,29.90
2019-06-07T02:54:18.158Z,27.53
2019-06-07T02:56:57.835Z,31.77
2019-06-07T02:59:42.191Z,32.37
2019-06-07T03:01:52.550Z,35.03
2019-06-07T03:04:23.031Z,33.37
2019-06-07T03:06:54.575Z,33.03
2019-06-07T03:09:28.833Z,33.40
2019-06-07T03:12:00.580Z,34.30
2019-06-07T03:14:35.485Z,33.42
2019-06-07T03:17:13.449Z,33.97
2019-06-07T03:19:46.425Z,35.53
2019-06-07T03:22:16.317Z,33.73
2019-06-07T03:24:46.660Z,36.50
2019-06-07T03:27:35.094Z,37.27
2019-06-07T03:29:48.436Z,34.70
2019-06-07T03:32:18.346Z,32.43
2019-06-07T03:34:48.284Z,37.00
2019-06-07T03:37:18.427Z,37.40
2019-06-07T03:39:48.246Z,35.67
2019-06-07T03:42:18.076Z,34.90
2019-06-07T03:44:48.023Z,35.93
2019-06-07T03:47:18.599Z,34.23
2019-06-07T03:49:48.489Z,34.17
2019-06-07T03:52:18.465Z,36.60
2019-06-07T03:54:48.351Z,35.13
2019-06-07T03:57:18.170Z,32.37
2019-06-07T03:59:48.146Z,30.97
2019-06-07T04:02:18.133Z,33.27
2019-06-07T04:04:48.093Z,30.93
2019-06-07T04:07:18.075Z,34.50
2019-06-07T04:09:48.219Z,35.47
2019-06-07T04:12:18.416Z,30.83
2019-06-07T04:14:48.548Z,34.80
2019-06-07T04:17:18.653Z,31.83
2019-06-07T04:19:48.953Z,34.77
2019-06-07T04:22:19.074Z,32.70
2019-06-07T04:24:49.044Z,31.50
2019-06-07T04:27:19.132Z,32.47
2019-06-07T04:30:06.689Z,33.17
2019-06-07T04:32:20.890Z,38.17
2019-06-07T04:34:50.868Z,31.37
2019-06-07T04:37:21.409Z,32.63
2019-06-07T04:39:51.862Z,30.50
2019-06-07T04:42:22.253Z,29.00
2019-06-07T04:44:53.182Z,31.53
2019-06-07T04:47:26.750Z,31.53
2019-06-07T04:49:58.167Z,32.87
2019-06-07T04:52:29.945Z,31.07
2019-06-07T04:55:00.009Z,29.97
2019-06-07T04:57:32.031Z,30.50
2019-06-07T05:00:12.760Z,28.43
2019-06-07T05:02:36.777Z,27.60
2019-06-07T05:05:05.294Z,31.50
2019-06-07T05:07:37.155Z,29.63
2019-06-07T05:10:06.850Z,27.87
2019-06-07T05:12:43.062Z,27.10
2019-06-07T05:15:08.497Z,24.87
2019-06-07T05:17:42.526Z,27.25
2019-06-07T05:20:10.291Z,28.10
2019-06-07T05:22:44.912Z,25.77
2019-06-07T05:25:12.005Z,27.50
2019-06-07T05:27:46.653Z,26.27
2019-06-07T05:30:57.894Z,23.90
2019-06-07T05:32:46.255Z,23.87
2019-06-07T05:35:16.565Z,25.33
2019-06-07T05:37:46.582Z,27.20
2019-06-07T05:40:21.403Z,22.63
2019-06-07T05:42:52.734Z,23.65
2019-06-07T05:45:32.331Z,25.85
2019-06-07T05:48:03.062Z,24.98
2019-06-07T05:50:42.382Z,22.13
2019-06-07T05:53:05.487Z,22.77
2019-06-07T05:55:37.666Z,26.20
2019-06-07T05:58:07.199Z,21.12
2019-06-07T06:00:38.888Z,21.68
2019-06-07T06:03:08.853Z,20.52
2019-06-07T06:05:44.986Z,19.02
2019-06-07T06:08:10.655Z,22.40
2019-06-07T06:10:46.124Z,20.95
2019-06-07T06:13:12.316Z,20.70
2019-06-07T06:15:56.326Z,19.55
2019-06-07T06:18:13.827Z,21.68
2019-06-07T06:21:05.353Z,19.27
2019-06-07T06:23:15.467Z,19.70
2019-06-07T06:25:53.544Z,18.85
2019-06-07T06:28:18.364Z,20.70
2019-06-07T06:30:49.948Z,18.87
2019-06-07T06:33:32.964Z,16.03
2019-06-07T06:35:51.858Z,16.10
2019-06-07T06:38:21.734Z,20.47
2019-06-07T06:41:05.264Z,23.30
2019-06-07T06:43:23.433Z,19.15
2019-06-07T06:45:53.429Z,19.83
2019-06-07T06:48:23.571Z,22.10
2019-06-07T06:50:53.540Z,22.85
2019-06-07T06:53:23.485Z,20.70
2019-06-07T06:55:54.520Z,18.62
2019-06-07T06:58:24.505Z,20.57
2019-06-07T07:01:05.745Z,19.32
2019-06-07T07:06:24.269Z,18.37
2019-06-07T07:08:30.106Z,18.67
2019-06-07T07:11:00.022Z,17.80
2019-06-07T07:13:29.962Z,20.48
2019-06-07T07:15:59.941Z,18.40
2019-06-07T07:18:29.911Z,17.87
2019-06-07T07:21:00.095Z,17.98
2019-06-07T07:23:29.958Z,17.60
2019-06-07T07:26:00.316Z,18.97
2019-06-07T07:28:30.536Z,20.40
2019-06-07T07:31:00.480Z,17.27
2019-06-07T07:34:21.127Z,18.15
2019-06-07T07:36:19.076Z,17.10
2019-06-07T07:38:34.097Z,14.85
2019-06-07T07:41:14.648Z,15.15
2019-06-07T07:43:35.581Z,16.93
2019-06-07T07:46:28.060Z,18.60
2019-06-07T07:48:38.311Z,14.23
2019-06-07T07:51:08.252Z,16.33
2019-06-07T07:53:51.890Z,14.38
2019-06-07T07:56:10.110Z,14.98
2019-06-07T07:58:40.142Z,19.92
2019-06-07T08:01:11.329Z,17.55
2019-06-07T08:03:41.543Z,13.60
2019-06-07T08:06:11.623Z,14.83
2019-06-07T08:08:41.448Z,15.13
2019-06-07T08:11:11.419Z,15.47
2019-06-07T08:13:43.115Z,16.20
2019-06-07T08:16:16.742Z,15.55
2019-06-07T08:18:44.862Z,17.07
2019-06-07T08:21:24.557Z,16.30
2019-06-07T08:23:47.667Z,14.33
2019-06-07T08:26:17.997Z,13.83
2019-06-07T08:28:48.428Z,13.53
2019-06-07T08:31:20.392Z,13.45
2019-06-07T08:33:50.409Z,13.40
2019-06-07T08:36:31.494Z,15.37
2019-06-07T08:38:56.977Z,13.58
2019-06-07T08:41:23.616Z,12.03
2019-06-07T08:43:56.451Z,12.18
2019-06-07T08:46:25.340Z,13.25
2019-06-07T08:48:57.173Z,12.13
2019-06-07T08:51:27.048Z,12.93
2019-06-07T08:54:15.908Z,13.53
2019-06-07T08:56:28.836Z,13.93
2019-06-07T08:59:03.042Z,12.45
2019-06-07T09:01:30.549Z,14.00
2019-06-07T09:04:07.607Z,11.48
2019-06-07T09:09:07.044Z,10.82
2019-06-07T09:11:37.348Z,10.95
2019-06-07T09:14:09.158Z,11.07
2019-06-07T09:16:39.933Z,11.48
2019-06-07T09:19:10.856Z,10.43
2019-06-07T09:21:41.231Z,11.15
2019-06-07T09:24:12.165Z,15.38
2019-06-07T09:26:42.258Z,12.73
2019-06-07T09:29:12.455Z,11.95
2019-06-07T09:31:52.798Z,12.07
2019-06-07T09:34:15.546Z,19.27
2019-06-07T09:36:45.729Z,9.40
2019-06-07T09:39:15.729Z,8.17
2019-06-07T09:41:49.914Z,10.32
2019-06-07T09:44:25.113Z,11.33
2019-06-07T09:47:07.982Z,11.90
2019-06-07T09:49:31.425Z,9.38
2019-06-07T09:51:52.526Z,8.87
2019-06-07T09:55:03.819Z,10.98
2019-06-07T09:56:54.061Z,10.00
2019-06-07T09:59:25.217Z,13.15
2019-06-07T10:01:55.418Z,7.53
2019-06-07T10:04:31.325Z,9.07
2019-06-07T10:07:03.982Z,8.78
2019-06-07T10:12:00.579Z,10.72
2019-06-07T10:14:30.604Z,8.40
2019-06-07T10:17:00.888Z,8.83
2019-06-07T10:19:30.912Z,10.20
2019-06-07T10:22:01.442Z,11.18
2019-06-07T10:24:31.450Z,11.65
2019-06-07T10:27:01.793Z,7.15
2019-06-07T10:29:31.806Z,6.63
2019-06-07T10:32:02.265Z,6.55
2019-06-07T10:34:32.406Z,7.15
2019-06-07T10:37:03.323Z,7.95
2019-06-07T10:39:47.745Z,7.28
2019-06-07T10:42:06.385Z,6.17
2019-06-07T10:44:37.622Z,6.42
2019-06-07T10:47:08.174Z,5.15
2019-06-07T10:49:38.416Z,6.17
2019-06-07T10:52:10.391Z,6.65
2019-06-07T10:54:40.949Z,6.83
2019-06-07T10:57:14.575Z,5.15
2019-06-07T10:59:42.485Z,5.15
2019-06-07T11:02:13.951Z,6.45
2019-06-07T11:04:44.058Z,5.90
2019-06-07T11:07:14.454Z,5.47
2019-06-07T11:09:44.481Z,6.97
2019-06-07T11:12:15.323Z,5.53
2019-06-07T11:14:45.648Z,6.87
2019-06-07T11:17:15.949Z,6.75
2019-06-07T11:19:45.989Z,5.35
2019-06-07T11:22:15.934Z,5.73
2019-06-07T11:24:46.274Z,4.60
2019-06-07T11:27:16.568Z,4.70
2019-06-07T11:29:47.814Z,5.00
2019-06-07T11:32:18.868Z,5.35
2019-06-07T11:34:48.854Z,5.47
2019-06-07T11:37:19.147Z,5.22
2019-06-07T11:39:49.106Z,5.92
2019-06-07T11:42:20.067Z,5.90
2019-06-07T11:44:56.817Z,5.70
2019-06-07T11:47:21.937Z,4.95
2019-06-07T11:49:52.168Z,5.97
2019-06-07T11:52:22.174Z,4.67
2019-06-07T11:54:52.125Z,4.43
2019-06-07T11:57:22.142Z,6.42
2019-06-07T11:59:51.957Z,3.92
2019-06-07T12:02:21.905Z,4.42
2019-06-07T12:04:52.133Z,5.37
2019-06-07T12:07:22.686Z,5.78
2019-06-07T12:09:56.531Z,5.03
2019-06-07T12:12:24.573Z,5.37
2019-06-07T12:14:54.466Z,4.83
2019-06-07T12:17:24.509Z,5.62
2019-06-07T12:19:54.802Z,6.10
2019-06-07T12:22:24.776Z,5.47
2019-06-07T12:24:55.068Z,4.40
2019-06-07T12:27:25.259Z,5.37
2019-06-07T12:29:55.148Z,4.40
2019-06-07T12:32:25.010Z,3.85
2019-06-07T12:34:55.238Z,3.47
2019-06-07T12:37:39.643Z,4.37
2019-06-07T12:39:56.966Z,5.10
2019-06-07T12:42:27.304Z,5.42
2019-06-07T12:44:57.253Z,4.58
2019-06-07T12:47:27.293Z,5.17
2019-06-07T12:49:57.307Z,5.53
2019-06-07T12:52:27.128Z,5.15
2019-06-07T12:54:57.142Z,5.53
2019-06-07T12:57:27.604Z,4.45
2019-06-07T12:59:57.558Z,4.33
2019-06-07T13:02:27.560Z,4.85
2019-06-07T13:04:57.418Z,4.10
2019-06-07T13:07:27.981Z,4.50
2019-06-07T13:09:58.246Z,4.75
2019-06-07T13:12:28.315Z,4.53
2019-06-07T13:14:58.354Z,6.20
2019-06-07T13:17:28.613Z,5.05
2019-06-07T13:19:59.038Z,5.30
2019-06-07T13:22:29.034Z,4.12
2019-06-07T13:24:59.668Z,4.33
2019-06-07T13:27:33.328Z,4.92
2019-06-07T13:30:09.860Z,4.33
2019-06-07T13:32:34.735Z,4.30
2019-06-07T13:35:05.047Z,4.53
2019-06-07T13:37:35.007Z,4.70
2019-06-07T13:40:05.388Z,4.87
2019-06-07T13:42:35.356Z,4.80
2019-06-07T13:45:06.851Z,4.80
2019-06-07T13:47:36.868Z,5.10
2019-06-07T13:50:07.674Z,5.45
2019-06-07T13:52:37.885Z,5.03
2019-06-07T13:55:08.759Z,5.25
2019-06-07T13:57:38.698Z,4.83
2019-06-07T14:00:11.105Z,5.12
2019-06-07T14:02:41.425Z,4.97
2019-06-07T14:05:11.753Z,4.60
2019-06-07T14:07:41.958Z,4.87
2019-06-07T14:10:12.394Z,5.10
2019-06-07T14:12:42.419Z,4.70
2019-06-07T14:15:13.878Z,5.12
2019-06-07T14:17:44.096Z,5.80
2019-06-07T14:20:14.398Z,4.67
2019-06-07T14:22:45.144Z,4.97
2019-06-07T14:25:15.080Z,5.37
2019-06-07T14:27:44.879Z,4.50
2019-06-07T14:30:15.066Z,4.47
2019-06-07T14:32:45.368Z,5.12
2019-06-07T14:35:16.897Z,5.65
2019-06-07T14:37:46.938Z,4.33
2019-06-07T14:40:17.375Z,4.90
2019-06-07T14:42:47.616Z,6.97
2019-06-07T14:45:18.192Z,4.63
2019-06-07T14:47:48.197Z,4.92
2019-06-07T14:50:18.578Z,6.10
2019-06-07T14:52:49.066Z,4.58
2019-06-07T14:55:19.281Z,4.33
2019-06-07T14:57:49.356Z,4.37
2019-06-07T15:00:19.352Z,4.33
2019-06-07T15:02:49.634Z,5.35
2019-06-07T15:05:23.303Z,5.65
2019-06-07T15:07:53.293Z,4.58
2019-06-07T15:10:23.407Z,5.53
2019-06-07T15:12:53.346Z,5.22
2019-06-07T15:15:23.479Z,4.28
2019-06-07T15:17:53.366Z,4.33
2019-06-07T15:20:23.655Z,4.83
2019-06-07T15:22:53.513Z,4.23
2019-06-07T15:25:23.540Z,5.08
2019-06-07T15:27:53.574Z,4.55
2019-06-07T15:30:23.632Z,4.97
2019-06-07T15:32:53.561Z,4.58
2019-06-07T15:35:23.713Z,5.70
2019-06-07T15:37:53.523Z,8.53
2019-06-07T15:40:23.570Z,5.08
2019-06-07T15:42:53.547Z,4.90
2019-06-07T15:45:23.573Z,4.95
2019-06-07T15:47:53.505Z,5.40
2019-06-07T15:50:23.716Z,6.40
2019-06-07T15:52:53.933Z,4.78
2019-06-07T15:55:24.650Z,5.26
2019-06-07T15:57:55.048Z,6.03
2019-06-07T16:00:25.282Z,6.20
2019-06-07T16:02:55.252Z,5.67
2019-06-07T16:05:25.331Z,5.60
2019-06-07T16:07:55.305Z,5.50
2019-06-07T16:10:25.413Z,6.28
2019-06-07T16:13:00.553Z,5.87
2019-06-07T16:15:27.580Z,6.17
2019-06-07T16:17:57.565Z,5.75
2019-06-07T16:20:27.506Z,5.60
2019-06-07T16:22:57.394Z,5.33
2019-06-07T16:25:27.447Z,6.08
2019-06-07T16:27:57.463Z,6.40
2019-06-07T16:30:27.773Z,6.83
2019-06-07T16:32:57.738Z,6.60
2019-06-07T16:35:28.019Z,5.80
2019-06-07T16:37:57.982Z,7.92
2019-06-07T16:40:27.930Z,6.55
2019-06-07T16:43:13.355Z,5.73
2019-06-07T16:45:29.840Z,6.87
2019-06-07T16:48:00.117Z,5.87
2019-06-07T16:50:30.329Z,5.65
2019-06-07T16:53:00.344Z,5.80
2019-06-07T16:55:30.371Z,7.37
2019-06-07T16:58:00.340Z,6.03
2019-06-07T17:00:30.290Z,6.58
2019-06-07T17:03:00.208Z,5.50
2019-06-07T17:05:30.247Z,5.90
2019-06-07T17:08:01.282Z,5.95
2019-06-07T17:10:31.296Z,6.17
2019-06-07T17:13:01.585Z,6.97
2019-06-07T17:15:31.553Z,5.97
2019-06-07T17:18:01.499Z,5.85
2019-06-07T17:20:32.430Z,6.33
2019-06-07T17:23:02.430Z,7.45
2019-06-07T17:25:32.686Z,6.72
2019-06-07T17:28:02.657Z,6.20
2019-06-07T17:30:32.676Z,8.20
2019-06-07T17:33:02.622Z,6.05
2019-06-07T17:35:32.675Z,6.10
2019-06-07T17:38:02.635Z,6.62
2019-06-07T17:40:32.579Z,7.20
2019-06-07T17:43:02.625Z,8.87
2019-06-07T17:45:32.445Z,7.95
2019-06-07T17:48:02.729Z,7.53
2019-06-07T17:50:32.642Z,7.58
2019-06-07T17:53:02.964Z,8.00
2019-06-07T17:55:33.049Z,7.83
2019-06-07T17:58:03.261Z,7.28
2019-06-07T18:00:51.007Z,7.40
2019-06-07T18:03:21.632Z,7.72
2019-06-07T18:05:53.604Z,10.75
2019-06-07T18:08:24.902Z,7.35
2019-06-07T18:10:54.848Z,10.80
2019-06-07T18:13:24.810Z,11.10
2019-06-07T18:15:59.264Z,12.05
2019-06-07T18:18:27.464Z,10.68
2019-06-07T18:20:57.674Z,11.30
2019-06-07T18:23:27.630Z,10.25
2019-06-07T18:25:58.553Z,10.80
2019-06-07T18:28:28.782Z,6.45
2019-06-07T18:30:59.011Z,7.37
2019-06-07T18:33:29.091Z,8.20
2019-06-07T18:35:59.501Z,11.18
2019-06-07T18:38:29.443Z,18.50
2019-06-07T18:40:59.630Z,9.35
2019-06-07T18:43:30.587Z,10.48
2019-06-07T18:46:00.487Z,6.47
2019-06-07T18:48:30.447Z,7.83
2019-06-07T18:51:00.363Z,6.47
2019-06-07T18:53:30.288Z,8.65
2019-06-07T18:56:00.257Z,9.90
2019-06-07T18:58:30.257Z,6.17
2019-06-07T19:01:00.246Z,7.58
2019-06-07T19:03:31.256Z,4.90
2019-06-07T19:06:01.140Z,6.13
2019-06-07T19:08:31.352Z,3.42
2019-06-07T19:11:01.516Z,3.02
2019-06-07T19:13:31.497Z,3.00
2019-06-07T19:16:01.495Z,5.00
2019-06-07T19:18:31.515Z,4.50
2019-06-07T19:21:01.516Z,8.00
2019-06-07T19:23:31.322Z,3.13
2019-06-07T19:26:01.202Z,4.90
2019-06-07T19:28:31.148Z,3.52
2019-06-07T19:31:01.376Z,2.08
2019-06-07T19:33:31.344Z,3.43
2019-06-07T19:36:01.806Z,4.00
2019-06-07T19:38:31.873Z,4.25
2019-06-07T19:41:16.475Z,2.60
2019-06-07T19:43:33.345Z,5.08
2019-06-07T19:46:03.310Z,2.35
2019-06-07T19:48:33.262Z,3.22
2019-06-07T19:51:03.266Z,3.05
2019-06-07T19:53:33.192Z,2.80
2019-06-07T19:56:03.550Z,6.58
2019-06-07T19:58:33.549Z,6.42
2019-06-07T20:01:04.737Z,3.85
2019-06-07T20:03:35.875Z,3.83
2019-06-07T20:06:06.127Z,4.77
2019-06-07T20:08:36.102Z,6.45
2019-06-07T20:11:06.152Z,3.80
2019-06-07T20:13:36.130Z,3.42
2019-06-07T20:16:06.108Z,2.58
2019-06-07T20:18:37.079Z,3.20
2019-06-07T20:21:07.301Z,5.10
2019-06-07T20:23:37.439Z,3.20
2019-06-07T20:26:07.342Z,4.60
2019-06-07T20:28:38.785Z,2.33
2019-06-07T20:31:09.285Z,7.38
2019-06-07T20:33:39.297Z,4.58
2019-06-07T20:36:09.249Z,2.52
2019-06-07T20:38:39.196Z,2.50
2019-06-07T20:41:09.138Z,5.15
2019-06-07T20:43:39.284Z,2.60
2019-06-07T20:46:09.251Z,1.77
2019-06-07T20:48:39.441Z,3.27
2019-06-07T20:51:09.388Z,3.55
2019-06-07T20:53:39.592Z,5.53
2019-06-07T20:56:09.711Z,3.75
2019-06-07T20:58:41.216Z,2.33
2019-06-07T21:01:11.084Z,4.15
2019-06-07T21:03:41.046Z,4.97
2019-06-07T21:06:11.126Z,4.05
2019-06-07T21:08:41.149Z,3.60
2019-06-07T21:11:11.014Z,4.10
2019-06-07T21:13:40.961Z,3.58
2019-06-07T21:16:10.980Z,2.87
2019-06-07T21:18:40.930Z,3.17
2019-06-07T21:21:10.908Z,3.40
2019-06-07T21:23:41.175Z,3.00
2019-06-07T21:26:11.308Z,2.22
2019-06-07T21:28:41.233Z,3.05
2019-06-07T21:31:12.386Z,2.20
2019-06-07T21:33:42.398Z,2.40
2019-06-07T21:36:12.338Z,3.30
2019-06-07T21:38:42.316Z,3.40
2019-06-07T21:41:12.892Z,2.98
2019-06-07T21:43:43.157Z,1.70
2019-06-07T21:46:20.004Z,1.82
2019-06-07T21:48:45.153Z,2.30
2019-06-07T21:51:15.379Z,2.92
2019-06-07T21:53:45.386Z,3.52
2019-06-07T21:56:15.446Z,2.60
2019-06-07T21:58:46.424Z,3.10
2019-06-07T22:01:28.701Z,4.30
2019-06-07T22:03:58.836Z,3.05
2019-06-07T22:06:28.783Z,2.55
2019-06-07T22:08:58.826Z,2.43
2019-06-07T22:11:28.812Z,3.10
2019-06-07T22:13:59.430Z,2.60
2019-06-07T22:16:29.737Z,2.17
2019-06-07T22:18:59.607Z,2.90
2019-06-07T22:21:29.577Z,2.08
2019-06-07T22:23:59.919Z,2.85
2019-06-07T22:26:29.829Z,3.22
2019-06-07T22:28:59.865Z,2.70
2019-06-07T22:31:31.070Z,2.37
2019-06-07T22:34:01.492Z,1.65
2019-06-07T22:36:31.467Z,1.23
2019-06-07T22:39:01.536Z,5.53
2019-06-07T22:41:33.040Z,2.25
2019-06-07T22:44:03.086Z,2.77
2019-06-07T22:46:37.342Z,1.17
2019-06-07T22:49:04.912Z,2.73
2019-06-07T22:51:34.863Z,1.05
2019-06-07T22:54:04.941Z,0.97
2019-06-07T22:56:43.213Z,5.40
2019-06-07T22:59:16.761Z,1.00
2019-06-07T23:01:44.907Z,2.27
2019-06-07T23:04:14.853Z,1.85
2019-06-07T23:06:44.675Z,1.60
2019-06-07T23:09:14.950Z,1.40
2019-06-07T23:11:44.886Z,2.63
2019-06-07T23:14:15.938Z,1.30
2019-06-07T23:16:55.039Z,3.67
2019-06-07T23:19:18.297Z,2.58
2019-06-07T23:21:48.377Z,0.98
2019-06-07T23:24:20.139Z,3.08
2019-06-07T23:26:50.058Z,1.13
2019-06-07T23:29:20.728Z,2.10
2019-06-07T23:31:50.696Z,2.30
2019-06-07T23:34:21.039Z,2.60
2019-06-07T23:36:50.916Z,3.43
2019-06-07T23:39:22.369Z,1.42
2019-06-07T23:41:52.610Z,1.65
2019-06-07T23:44:22.525Z,1.15
2019-06-07T23:46:52.709Z,1.33
2019-06-07T23:49:22.930Z,1.20
2019-06-07T23:51:53.084Z,1.62
2019-06-07T23:54:23.047Z,3.30
2019-06-07T23:56:53.118Z,1.67
2019-06-07T23:59:23.432Z,2.50
